createdAt,value
2023-07-09T00:00:50.813Z,336.13
2023-07-09T00:03:20.447Z,349.00
2023-07-09T00:05:51.033Z,360.83
2023-07-09T00:08:28.508Z,334.55
2023-07-09T00:10:58.906Z,322.00
2023-07-09T00:13:28.952Z,311.35
2023-07-09T00:16:02.223Z,319.60
2023-07-09T00:18:30.341Z,301.02
2023-07-09T00:21:00.204Z,304.67
2023-07-09T00:23:28.853Z,279.55
2023-07-09T00:25:57.999Z,291.02
2023-07-09T00:28:26.508Z,301.30
2023-07-09T00:30:54.168Z,282.02
2023-07-09T00:33:22.166Z,291.02
2023-07-09T00:35:51.586Z,291.48
2023-07-09T00:38:22.461Z,280.45
2023-07-09T00:41:03.196Z,277.15
2023-07-09T00:43:33.312Z,267.13
2023-07-09T00:46:19.456Z,284.13
2023-07-09T00:48:49.634Z,260.80
2023-07-09T00:51:21.674Z,281.15
2023-07-09T00:53:53.368Z,283.85
2023-07-09T00:56:29.899Z,275.63
2023-07-09T00:59:00.673Z,277.95
2023-07-09T01:01:28.955Z,266.85
2023-07-09T01:04:00.631Z,279.17
2023-07-09T01:06:35.919Z,274.48
2023-07-09T01:09:05.282Z,271.83
2023-07-09T01:11:39.094Z,252.18
2023-07-09T01:14:10.120Z,246.48
2023-07-09T01:16:40.334Z,237.98
2023-07-09T01:19:08.701Z,234.57
2023-07-09T01:21:38.117Z,225.15
2023-07-09T01:24:15.688Z,232.18
2023-07-09T01:26:44.860Z,221.13
2023-07-09T01:29:13.527Z,218.93
2023-07-09T01:31:41.308Z,229.13
2023-07-09T01:34:09.566Z,214.27
2023-07-09T01:36:40.929Z,214.55
2023-07-09T01:39:09.302Z,230.43
2023-07-09T01:41:36.990Z,217.48
2023-07-09T01:44:06.285Z,217.73
2023-07-09T01:46:34.107Z,225.13
2023-07-09T01:49:02.061Z,207.35
2023-07-09T01:51:30.529Z,217.38
2023-07-09T01:54:01.036Z,224.82
2023-07-09T01:56:30.515Z,231.38
2023-07-09T01:59:02.707Z,209.60
2023-07-09T02:01:31.164Z,244.35
2023-07-09T02:03:59.203Z,242.75
2023-07-09T02:06:27.063Z,250.25
2023-07-09T02:08:57.308Z,253.52
2023-07-09T02:11:26.474Z,227.07
2023-07-09T02:13:55.031Z,242.70
2023-07-09T02:16:22.793Z,229.55
2023-07-09T02:18:51.909Z,250.43
2023-07-09T02:21:19.733Z,238.38
2023-07-09T02:23:47.741Z,248.70
2023-07-09T02:26:15.466Z,252.80
2023-07-09T02:28:44.466Z,262.58
2023-07-09T02:31:12.462Z,293.00
2023-07-09T02:33:40.680Z,295.92
2023-07-09T02:36:08.877Z,308.50
2023-07-09T02:38:36.615Z,320.30
2023-07-09T02:41:04.556Z,320.75
2023-07-09T02:43:32.254Z,300.10
2023-07-09T02:46:01.895Z,317.42
2023-07-09T02:48:29.869Z,299.67
2023-07-09T02:50:57.788Z,282.63
2023-07-09T02:53:25.533Z,287.60
2023-07-09T02:55:53.715Z,282.75
2023-07-09T02:58:21.412Z,279.08
2023-07-09T03:00:52.885Z,269.02
2023-07-09T03:03:22.933Z,285.02
2023-07-09T03:05:50.902Z,284.50
2023-07-09T03:08:18.649Z,277.08
2023-07-09T03:10:46.820Z,281.05
2023-07-09T03:13:14.512Z,298.42
2023-07-09T03:15:42.227Z,282.40
2023-07-09T03:18:09.883Z,283.35
2023-07-09T03:20:39.909Z,293.23
2023-07-09T03:23:07.696Z,297.80
2023-07-09T03:25:35.700Z,298.67
2023-07-09T03:28:03.394Z,315.42
2023-07-09T03:30:32.014Z,307.83
2023-07-09T03:32:59.813Z,302.33
2023-07-09T03:35:28.015Z,309.48
2023-07-09T03:37:56.999Z,312.30
2023-07-09T03:40:25.419Z,312.88
2023-07-09T03:42:53.134Z,319.27
2023-07-09T03:45:20.829Z,311.90
2023-07-09T03:47:48.661Z,311.00
2023-07-09T03:50:16.614Z,328.48
2023-07-09T03:52:44.844Z,311.23
2023-07-09T03:55:14.280Z,313.17
2023-07-09T03:57:42.738Z,320.65
2023-07-09T04:00:12.246Z,329.92
2023-07-09T04:02:44.980Z,316.63
2023-07-09T04:05:13.010Z,328.27
2023-07-09T04:07:41.272Z,321.83
2023-07-09T04:10:09.508Z,323.33
2023-07-09T04:12:38.904Z,321.42
2023-07-09T04:17:36.006Z,306.35
2023-07-09T04:20:06.794Z,312.92
2023-07-09T04:22:35.529Z,325.35
2023-07-09T04:25:04.541Z,337.27
2023-07-09T04:27:33.054Z,341.23
2023-07-09T04:30:02.210Z,315.27
2023-07-09T04:32:30.407Z,344.95
2023-07-09T04:34:58.851Z,331.67
2023-07-09T04:37:26.900Z,329.60
2023-07-09T04:39:54.583Z,319.55
2023-07-09T04:42:22.413Z,323.90
2023-07-09T04:44:50.405Z,324.83
2023-07-09T04:47:20.011Z,329.48
2023-07-09T04:49:47.729Z,329.75
2023-07-09T04:52:16.824Z,331.02
2023-07-09T04:54:45.446Z,344.35
2023-07-09T04:57:13.807Z,332.63
2023-07-09T04:59:42.589Z,325.20
2023-07-09T05:02:10.357Z,341.30
2023-07-09T05:04:39.541Z,341.17
2023-07-09T05:07:07.913Z,334.15
2023-07-09T05:09:36.062Z,336.48
2023-07-09T05:12:03.884Z,347.35
2023-07-09T05:14:31.899Z,344.95
2023-07-09T05:16:59.600Z,332.40
2023-07-09T05:19:27.555Z,339.85
2023-07-09T05:21:56.660Z,347.40
2023-07-09T05:24:26.703Z,341.02
2023-07-09T05:26:56.195Z,344.25
2023-07-09T05:29:24.240Z,351.90
2023-07-09T05:31:51.907Z,349.95
2023-07-09T05:34:19.585Z,351.38
2023-07-09T05:36:47.809Z,362.42
2023-07-09T05:39:17.213Z,347.00
2023-07-09T05:41:45.317Z,363.10
2023-07-09T05:44:13.022Z,391.40
2023-07-09T05:46:41.108Z,370.63
2023-07-09T05:49:09.167Z,387.92
2023-07-09T05:51:37.099Z,402.38
2023-07-09T05:54:04.929Z,376.90
2023-07-09T05:56:34.193Z,390.63
2023-07-09T05:59:01.897Z,400.88
2023-07-09T06:01:30.265Z,407.48
2023-07-09T06:03:58.584Z,370.77
2023-07-09T06:06:27.349Z,425.55
2023-07-09T06:08:55.693Z,402.40
2023-07-09T06:11:24.575Z,422.67
2023-07-09T06:13:53.656Z,392.92
2023-07-09T06:16:22.164Z,414.75
2023-07-09T06:18:49.882Z,428.70
2023-07-09T06:21:17.785Z,429.05
2023-07-09T06:23:47.101Z,421.23
2023-07-09T06:26:15.404Z,424.75
2023-07-09T06:28:43.073Z,417.95
2023-07-09T06:31:12.426Z,410.30
2023-07-09T06:33:40.212Z,403.00
2023-07-09T06:36:08.491Z,389.80
2023-07-09T06:38:36.251Z,413.73
2023-07-09T06:41:04.122Z,411.05
2023-07-09T06:43:32.789Z,443.75
2023-07-09T06:46:02.378Z,433.73
2023-07-09T06:48:31.965Z,409.98
2023-07-09T06:51:01.620Z,384.98
2023-07-09T06:53:30.926Z,392.42
2023-07-09T06:56:00.590Z,402.85
2023-07-09T06:58:29.783Z,413.50
2023-07-09T07:00:57.725Z,410.05
2023-07-09T07:03:26.656Z,409.98
2023-07-09T07:05:55.918Z,370.15
2023-07-09T07:08:25.543Z,413.80
2023-07-09T07:11:02.971Z,376.23
2023-07-09T07:13:31.255Z,307.65
2023-07-09T07:15:59.221Z,283.55
2023-07-09T07:18:27.741Z,338.30
2023-07-09T07:20:56.887Z,382.98
2023-07-09T07:23:25.518Z,479.67
2023-07-09T07:25:53.456Z,491.13
2023-07-09T07:28:21.742Z,519.97
2023-07-09T07:30:59.164Z,470.10
2023-07-09T07:33:27.550Z,460.17
2023-07-09T07:36:20.555Z,424.27
2023-07-09T07:38:44.429Z,382.83
2023-07-09T07:41:12.651Z,335.88
2023-07-09T07:43:40.603Z,342.38
2023-07-09T07:46:09.446Z,333.17
2023-07-09T07:48:37.590Z,308.02
2023-07-09T07:51:06.858Z,268.13
2023-07-09T07:53:34.990Z,242.63
2023-07-09T07:56:04.238Z,250.70
2023-07-09T07:58:33.724Z,227.10
2023-07-09T08:01:01.795Z,224.10
2023-07-09T08:03:30.132Z,217.55
2023-07-09T08:05:59.247Z,213.43
2023-07-09T08:08:30.412Z,204.27
2023-07-09T08:11:05.722Z,201.20
2023-07-09T08:13:34.494Z,198.50
2023-07-09T08:16:03.125Z,192.57
2023-07-09T08:18:31.468Z,188.60
2023-07-09T08:21:00.284Z,200.52
2023-07-09T08:23:28.299Z,203.95
2023-07-09T08:25:58.033Z,233.13
2023-07-09T08:28:26.693Z,251.25
2023-07-09T08:30:55.033Z,245.25
2023-07-09T08:33:23.427Z,310.52
2023-07-09T08:35:52.514Z,407.98
2023-07-09T08:38:21.572Z,469.45
2023-07-09T08:41:09.820Z,486.38
2023-07-09T08:43:48.785Z,502.17
2023-07-09T08:46:22.029Z,490.08
2023-07-09T08:48:52.094Z,484.60
2023-07-09T08:51:27.948Z,492.50
2023-07-09T08:54:00.067Z,466.27
2023-07-09T08:56:32.955Z,488.88
2023-07-09T08:59:03.614Z,468.63
2023-07-09T09:01:36.344Z,467.70
2023-07-09T09:04:08.679Z,465.42
2023-07-09T09:06:37.011Z,454.75
2023-07-09T09:09:14.400Z,445.95
2023-07-09T09:11:47.733Z,480.52
2023-07-09T09:14:29.892Z,454.85
2023-07-09T09:16:59.107Z,451.73
2023-07-09T09:19:31.813Z,457.90
2023-07-09T09:22:05.964Z,456.48
2023-07-09T09:24:38.225Z,484.17
2023-07-09T09:27:07.502Z,459.65
2023-07-09T09:29:35.578Z,484.20
2023-07-09T09:32:20.467Z,475.52
2023-07-09T09:34:48.449Z,475.23
2023-07-09T09:37:27.377Z,495.75
2023-07-09T09:40:12.122Z,479.33
2023-07-09T09:42:44.895Z,463.13
2023-07-09T09:45:17.536Z,475.67
2023-07-09T09:47:46.058Z,477.30
2023-07-09T09:50:16.328Z,479.45
2023-07-09T09:52:45.399Z,479.30
2023-07-09T09:55:18.761Z,494.92
2023-07-09T09:57:51.518Z,491.17
2023-07-09T10:00:21.040Z,488.70
2023-07-09T10:02:48.921Z,473.10
2023-07-09T10:05:18.579Z,480.02
2023-07-09T10:07:53.209Z,485.65
2023-07-09T10:10:25.280Z,469.35
2023-07-09T10:12:59.103Z,433.52
2023-07-09T10:15:35.811Z,448.88
2023-07-09T10:18:08.699Z,443.50
2023-07-09T10:20:44.899Z,438.48
2023-07-09T10:23:23.328Z,433.45
2023-07-09T10:25:57.120Z,388.17
2023-07-09T10:29:03.542Z,386.90
2023-07-09T10:31:42.297Z,368.60
2023-07-09T10:34:23.091Z,347.38
2023-07-09T10:37:09.188Z,364.63
2023-07-09T10:39:41.141Z,328.40
2023-07-09T10:42:18.933Z,315.30
2023-07-09T10:44:56.440Z,312.10
2023-07-09T10:47:31.082Z,299.92
2023-07-09T10:50:00.662Z,270.63
2023-07-09T10:52:32.385Z,248.77
2023-07-09T10:55:05.510Z,247.93
2023-07-09T10:57:45.147Z,248.23
2023-07-09T11:00:19.675Z,255.25
2023-07-09T11:02:50.307Z,240.65
2023-07-09T11:05:19.838Z,251.50
2023-07-09T11:08:01.326Z,246.40
2023-07-09T11:10:34.083Z,231.38
2023-07-09T11:13:07.657Z,232.68
2023-07-09T11:15:39.753Z,233.73
2023-07-09T11:18:09.508Z,210.88
2023-07-09T11:20:43.305Z,226.88
2023-07-09T11:23:20.481Z,230.70
2023-07-09T11:25:50.602Z,218.98
2023-07-09T11:28:18.348Z,214.65
2023-07-09T11:30:53.469Z,203.90
2023-07-09T11:33:25.419Z,199.05
2023-07-09T11:35:56.185Z,193.02
2023-07-09T11:38:26.619Z,178.35
2023-07-09T11:40:57.028Z,188.40
2023-07-09T11:43:34.894Z,190.95
2023-07-09T11:46:13.388Z,187.60
2023-07-09T11:48:42.464Z,181.75
2023-07-09T11:51:19.303Z,183.93
2023-07-09T11:53:51.601Z,171.80
2023-07-09T11:56:21.126Z,175.77
2023-07-09T11:58:52.807Z,176.15
2023-07-09T12:01:26.496Z,166.90
2023-07-09T12:03:54.982Z,172.18
2023-07-09T12:06:26.470Z,173.25
2023-07-09T12:08:54.871Z,180.20
2023-07-09T12:11:25.013Z,173.70
2023-07-09T12:13:53.347Z,174.23
2023-07-09T12:16:28.190Z,192.65
2023-07-09T12:18:55.938Z,195.00
2023-07-09T12:21:25.870Z,202.48
2023-07-09T12:23:54.674Z,197.75
2023-07-09T12:26:22.860Z,185.52
2023-07-09T12:28:52.954Z,176.88
2023-07-09T12:31:32.579Z,198.38
2023-07-09T12:34:01.361Z,203.27
2023-07-09T12:36:30.435Z,192.45
2023-07-09T12:39:05.611Z,207.93
2023-07-09T12:41:40.040Z,221.73
2023-07-09T12:44:13.570Z,259.67
2023-07-09T12:46:44.724Z,261.80
2023-07-09T12:49:23.928Z,261.02
2023-07-09T12:51:52.201Z,260.95
2023-07-09T12:54:23.522Z,257.60
2023-07-09T12:56:54.121Z,263.88
2023-07-09T12:59:24.497Z,267.48
2023-07-09T13:02:03.310Z,267.30
2023-07-09T13:04:33.129Z,251.57
2023-07-09T13:07:01.888Z,266.63
2023-07-09T13:09:30.440Z,262.75
2023-07-09T13:11:59.703Z,280.17
2023-07-09T13:14:31.588Z,261.38
2023-07-09T13:17:07.257Z,268.63
2023-07-09T13:19:35.438Z,264.40
2023-07-09T13:22:03.923Z,266.58
2023-07-09T13:24:33.815Z,265.40
2023-07-09T13:27:02.358Z,271.77
2023-07-09T13:29:30.318Z,264.30
2023-07-09T13:31:58.524Z,272.90
2023-07-09T13:34:29.308Z,284.88
2023-07-09T13:36:58.596Z,280.00
2023-07-09T13:39:28.858Z,280.77
2023-07-09T13:41:57.413Z,280.42
2023-07-09T13:44:27.723Z,280.00
2023-07-09T13:46:56.205Z,289.67
2023-07-09T13:49:26.124Z,291.48
2023-07-09T13:51:58.417Z,290.63
2023-07-09T13:54:28.301Z,289.63
2023-07-09T13:56:55.994Z,274.35
2023-07-09T13:59:26.034Z,254.30
2023-07-09T14:01:57.795Z,264.33
2023-07-09T14:04:27.495Z,245.68
2023-07-09T14:06:56.991Z,258.63
2023-07-09T14:09:24.682Z,270.40
2023-07-09T14:11:54.738Z,266.10
2023-07-09T14:14:24.214Z,248.35
2023-07-09T14:16:52.956Z,250.75
2023-07-09T14:19:23.684Z,243.38
2023-07-09T14:21:53.108Z,246.73
2023-07-09T14:24:24.749Z,253.30
2023-07-09T14:26:52.980Z,245.63
2023-07-09T14:29:20.994Z,244.45
2023-07-09T14:31:49.704Z,255.38
2023-07-09T14:34:23.375Z,248.90
2023-07-09T14:36:51.595Z,229.02
2023-07-09T14:39:19.392Z,211.23
2023-07-09T14:41:48.668Z,222.07
2023-07-09T14:44:26.370Z,212.05
2023-07-09T14:46:56.111Z,226.32
2023-07-09T14:49:24.541Z,233.52
2023-07-09T14:51:53.408Z,231.65
2023-07-09T14:54:24.449Z,218.57
2023-07-09T14:56:55.026Z,207.65
2023-07-09T14:59:23.598Z,216.90
2023-07-09T15:01:51.907Z,218.68
2023-07-09T15:04:30.881Z,221.13
2023-07-09T15:06:58.875Z,223.82
2023-07-09T15:09:28.679Z,226.90
2023-07-09T15:11:59.721Z,238.93
2023-07-09T15:14:29.128Z,252.57
2023-07-09T15:17:00.801Z,262.00
2023-07-09T15:19:29.987Z,257.13
2023-07-09T15:21:57.912Z,229.82
2023-07-09T15:24:32.215Z,222.40
2023-07-09T15:27:02.146Z,242.18
2023-07-09T15:29:30.994Z,232.55
2023-07-09T15:32:01.783Z,234.32
2023-07-09T15:34:30.055Z,238.13
2023-07-09T15:36:57.768Z,248.15
2023-07-09T15:39:27.440Z,235.35
2023-07-09T15:41:55.134Z,237.18
2023-07-09T15:44:25.573Z,240.82
2023-07-09T15:46:55.195Z,259.83
2023-07-09T15:49:25.597Z,247.30
2023-07-09T15:51:53.354Z,255.32
2023-07-09T15:54:23.572Z,263.20
2023-07-09T15:56:53.565Z,265.70
2023-07-09T15:59:29.352Z,239.45
2023-07-09T16:01:57.901Z,240.27
2023-07-09T16:04:26.816Z,227.38
2023-07-09T16:06:55.203Z,216.48
2023-07-09T16:09:23.383Z,223.73
2023-07-09T16:11:53.152Z,231.18
2023-07-09T16:14:27.745Z,243.57
2023-07-09T16:16:57.714Z,229.50
2023-07-09T16:19:27.299Z,247.02
2023-07-09T16:21:57.217Z,267.15
2023-07-09T16:24:30.695Z,266.63
2023-07-09T16:26:58.905Z,283.25
2023-07-09T16:29:31.487Z,284.58
2023-07-09T16:32:00.599Z,297.75
2023-07-09T16:34:30.839Z,301.63
2023-07-09T16:36:59.931Z,296.90
2023-07-09T16:39:31.271Z,296.90
2023-07-09T16:41:59.859Z,282.45
2023-07-09T16:44:29.237Z,283.67
2023-07-09T16:46:57.430Z,289.58
2023-07-09T16:49:34.996Z,295.98
2023-07-09T16:52:03.074Z,316.38
2023-07-09T16:54:31.330Z,302.73
2023-07-09T16:56:59.071Z,309.17
2023-07-09T16:59:27.104Z,317.38
2023-07-09T17:01:56.126Z,359.00
2023-07-09T17:04:30.127Z,370.52
2023-07-09T17:06:58.418Z,388.65
2023-07-09T17:09:26.511Z,430.33
2023-07-09T17:11:58.716Z,456.60
2023-07-09T17:14:26.714Z,452.23
2023-07-09T17:16:55.796Z,465.83
2023-07-09T17:19:24.221Z,477.98
2023-07-09T17:21:59.437Z,455.15
2023-07-09T17:24:29.299Z,452.70
2023-07-09T17:26:59.835Z,453.23
2023-07-09T17:29:28.217Z,460.27
2023-07-09T17:31:57.297Z,442.27
2023-07-09T17:34:25.111Z,445.35
2023-07-09T17:36:52.861Z,446.85
2023-07-09T17:39:22.939Z,417.73
2023-07-09T17:41:52.064Z,417.80
2023-07-09T17:44:21.723Z,434.05
2023-07-09T17:46:51.125Z,426.08
2023-07-09T17:49:22.465Z,421.45
2023-07-09T17:51:50.140Z,427.27
2023-07-09T17:54:19.679Z,430.95
2023-07-09T17:56:48.929Z,447.70
2023-07-09T17:59:19.884Z,450.50
2023-07-09T18:01:52.513Z,443.80
2023-07-09T18:04:30.868Z,431.90
2023-07-09T18:07:00.261Z,430.08
2023-07-09T18:09:28.494Z,436.83
2023-07-09T18:11:56.853Z,429.85
2023-07-09T18:14:29.266Z,448.27
2023-07-09T18:16:58.160Z,429.30
2023-07-09T18:19:29.584Z,433.08
2023-07-09T18:22:01.804Z,443.67
2023-07-09T18:24:29.793Z,428.85
2023-07-09T18:26:57.641Z,446.17
2023-07-09T18:29:30.788Z,444.90
2023-07-09T18:32:00.694Z,438.25
2023-07-09T18:34:29.713Z,425.23
2023-07-09T18:36:57.444Z,436.92
2023-07-09T18:39:25.129Z,419.05
2023-07-09T18:41:53.081Z,429.63
2023-07-09T18:44:23.960Z,418.98
2023-07-09T18:46:52.371Z,420.77
2023-07-09T18:49:20.201Z,432.02
2023-07-09T18:51:49.698Z,448.15
2023-07-09T18:54:19.180Z,437.85
2023-07-09T18:56:49.590Z,441.77
2023-07-09T18:59:20.599Z,455.17
2023-07-09T19:01:50.034Z,467.65
2023-07-09T19:04:19.407Z,474.20
2023-07-09T19:06:49.237Z,502.38
2023-07-09T19:09:19.582Z,496.75
2023-07-09T19:11:49.287Z,492.55
2023-07-09T19:14:17.867Z,498.02
2023-07-09T19:16:50.398Z,492.08
2023-07-09T19:19:21.249Z,508.35
2023-07-09T19:21:52.792Z,537.10
2023-07-09T19:24:22.719Z,550.75
2023-07-09T19:26:51.676Z,556.35
2023-07-09T19:29:20.389Z,573.55
2023-07-09T19:31:52.923Z,573.22
2023-07-09T19:34:22.836Z,594.10
2023-07-09T19:36:54.693Z,556.47
2023-07-09T19:39:27.298Z,556.88
2023-07-09T19:41:57.041Z,573.08
2023-07-09T19:44:24.830Z,556.80
2023-07-09T19:46:52.531Z,557.38
2023-07-09T19:49:20.439Z,568.75
2023-07-09T19:51:48.089Z,555.15
2023-07-09T19:54:19.205Z,569.33
2023-07-09T19:56:49.721Z,570.25
2023-07-09T19:59:19.859Z,553.65
2023-07-09T20:01:50.688Z,539.90
2023-07-09T20:04:18.962Z,579.58
2023-07-09T20:06:46.711Z,545.67
2023-07-09T20:09:15.512Z,546.70
2023-07-09T20:11:47.020Z,557.55
2023-07-09T20:14:16.459Z,540.63
2023-07-09T20:16:44.279Z,562.95
2023-07-09T20:19:15.224Z,536.08
2023-07-09T20:21:45.843Z,541.15
2023-07-09T20:24:17.261Z,543.35
2023-07-09T20:26:47.210Z,553.00
2023-07-09T20:29:16.565Z,538.20
2023-07-09T20:31:47.280Z,554.03
2023-07-09T20:34:17.839Z,538.85
2023-07-09T20:36:46.186Z,539.38
2023-07-09T20:39:16.499Z,553.75
2023-07-09T20:41:47.672Z,539.83
2023-07-09T20:44:23.252Z,544.75
2023-07-09T20:46:51.148Z,532.72
2023-07-09T20:49:26.277Z,530.35
2023-07-09T20:51:54.241Z,548.13
2023-07-09T20:54:22.016Z,564.58
2023-07-09T20:56:54.384Z,531.22
2023-07-09T20:59:22.078Z,556.20
2023-07-09T21:01:49.761Z,530.95
2023-07-09T21:04:19.864Z,512.22
2023-07-09T21:06:49.570Z,490.42
2023-07-09T21:09:18.956Z,514.95
2023-07-09T21:11:48.497Z,478.50
2023-07-09T21:14:18.486Z,475.17
2023-07-09T21:16:50.192Z,483.63
2023-07-09T21:19:21.816Z,503.58
2023-07-09T21:21:49.910Z,492.73
2023-07-09T21:24:29.143Z,506.08
2023-07-09T21:26:58.461Z,490.55
2023-07-09T21:29:28.664Z,509.42
2023-07-09T21:32:00.214Z,467.58
2023-07-09T21:34:31.049Z,454.63
2023-07-09T21:37:01.088Z,457.00
2023-07-09T21:39:31.914Z,446.55
2023-07-09T21:41:59.828Z,463.00
2023-07-09T21:44:29.038Z,465.55
2023-07-09T21:46:59.757Z,463.52
2023-07-09T21:49:30.733Z,450.10
2023-07-09T21:51:58.821Z,455.33
2023-07-09T21:54:58.774Z,460.15
2023-07-09T21:57:19.981Z,446.20
2023-07-09T21:59:49.136Z,468.02
2023-07-09T22:02:20.598Z,460.50
2023-07-09T22:04:51.471Z,464.65
2023-07-09T22:07:22.521Z,449.30
2023-07-09T22:09:51.185Z,453.85
2023-07-09T22:12:21.525Z,467.75
2023-07-09T22:14:52.539Z,443.30
2023-07-09T22:17:27.143Z,450.65
2023-07-09T22:19:55.704Z,459.02
2023-07-09T22:22:24.417Z,459.85
2023-07-09T22:24:52.425Z,460.30
2023-07-09T22:27:20.459Z,464.15
2023-07-09T22:29:48.394Z,456.27
2023-07-09T22:32:20.392Z,449.42
2023-07-09T22:34:48.445Z,465.25
2023-07-09T22:37:20.139Z,460.48
2023-07-09T22:39:48.001Z,484.52
2023-07-09T22:42:15.763Z,472.98
2023-07-09T22:44:44.244Z,465.75
2023-07-09T22:47:17.227Z,452.73
2023-07-09T22:49:46.569Z,446.30
2023-07-09T22:52:16.012Z,464.15
2023-07-09T22:54:44.810Z,437.45
2023-07-09T22:57:12.678Z,442.27
2023-07-09T22:59:40.698Z,436.77
2023-07-09T23:02:12.213Z,414.33
2023-07-09T23:04:40.450Z,408.15
2023-07-09T23:07:13.541Z,390.55
2023-07-09T23:09:41.922Z,402.15
2023-07-09T23:12:13.426Z,393.45
2023-07-09T23:14:41.697Z,385.13
2023-07-09T23:17:13.252Z,381.33
2023-07-09T23:19:41.643Z,388.38
2023-07-09T23:22:09.561Z,385.83
2023-07-09T23:24:39.022Z,374.85
2023-07-09T23:27:11.914Z,392.70
2023-07-09T23:29:39.780Z,363.65
2023-07-09T23:32:11.602Z,380.92
2023-07-09T23:34:39.469Z,379.92
2023-07-09T23:37:07.573Z,388.38
2023-07-09T23:39:35.338Z,355.95
2023-07-09T23:42:05.071Z,360.17
2023-07-09T23:44:34.197Z,380.42
2023-07-09T23:47:02.398Z,357.63
2023-07-09T23:49:31.161Z,348.17
2023-07-09T23:51:59.921Z,350.95
2023-07-09T23:54:27.612Z,347.20
2023-07-09T23:56:55.745Z,338.95
2023-07-09T23:59:31.995Z,362.25
